Mexico V — XCKR — position and weather

sailwx.info

Track history (hours):
 
Tides and Currents Weather Stations Pressure Air Temp Water Temp Dewpoint Dewpoint Depression Visibility Wind Speed Wind Dir Waves Ship Positions

Mexico V

Last reported at 2016-Aug-25 01:34 UTC. Time now 2016-Aug-25 09:46 UTC.
Position N 20°32' W 086°58'.

Length 40 m; draft 1.5 m.

Type: Ship. MMSI: 345110005.

Date/timePositionNaut miles runAvg speedWind from/ knotsBaromVisibWave heightAir tempDewpointWater temp
2016-Aug-25 01:34N 20°32' W 086°58'3 2.3
2016-Aug-25 00:23N 20°34' W 087°00'4 5.2
2016-Aug-24 23:33N 20°30' W 086°57'4 2.9
2016-Aug-24 22:15N 20°33' W 086°60'4 5.4
2016-Aug-24 21:34N 20°31' W 086°57'1 1.5
2016-Aug-24 20:34N 20°32' W 086°58'2 1.8
2016-Aug-24 19:18N 20°33' W 086°60'1 1.5
2016-Aug-24 18:33N 20°33' W 086°59'1 1.0
2016-Aug-24 17:29N 20°33' W 086°60'4 1.8
2016-Aug-24 15:33N 20°31' W 086°57'0 0.4
2016-Aug-24 14:33N 20°31' W 086°57'0 0.0
2016-Aug-24 13:33N 20°31' W 086°57'1 1.1
2016-Aug-24 12:33N 20°32' W 086°58'3 2.4
2016-Aug-24 11:19N 20°34' W 087°00'4 5.3
2016-Aug-24 10:34N 20°31' W 086°57'0 0.0
2016-Aug-24 03:20N 20°31' W 086°57'2 2.4
2016-Aug-24 02:33N 20°32' W 086°58'3 2.8
2016-Aug-24 01:25N 20°34' W 087°01'3 3.9
2016-Aug-24 00:34N 20°32' W 086°59'3 2.6
2016-Aug-23 23:21N 20°34' W 087°01'5 6.1
2016-Aug-23 22:33N 20°31' W 086°57'0 0.1
2016-Aug-23 21:33N 20°31' W 086°57'5 3.6
2016-Aug-23 20:12N 20°34' W 087°01'3 4.3
2016-Aug-23 19:33N 20°32' W 086°59'3 2.5
2016-Aug-23 18:26N 20°34' W 087°01'2 2.7
2016-Aug-23 17:33N 20°32' W 086°59'2 1.6
2016-Aug-23 16:24N 20°34' W 087°00'1 1.7
2016-Aug-23 15:34N 20°33' W 086°59'1 0.9
2016-Aug-23 14:21N 20°34' W 087°00'1 1.8
2016-Aug-23 13:33N 20°32' W 086°59'1 0.4
2016-Aug-23 12:17N 20°33' W 086°60'3 4.4
2016-Aug-23 11:34N 20°31' W 086°57'0 0.0
2016-Aug-23 01:16N 20°31' W 086°57'0 0.0
2016-Aug-22 23:33N 20°31' W 086°57'0 0.1
2016-Aug-22 22:33N 20°31' W 086°57'0 0.0
2016-Aug-22 21:33N 20°31' W 086°57'2 1.9
2016-Aug-22 20:33N 20°32' W 086°59'1 0.9
2016-Aug-22 19:18N 20°33' W 086°59'0 0.3
2016-Aug-22 18:33N 20°33' W 086°59'1 0.4
2016-Aug-22 17:20N 20°33' W 086°59'1 0.8
2016-Aug-22 16:33N 20°33' W 086°59'3 2.9
2016-Aug-22 15:23N 20°35' W 087°01'4 4.6
2016-Aug-22 14:33N 20°32' W 086°58'1 1.0
2016-Aug-22 13:15N 20°33' W 086°60'2 2.7
2016-Aug-22 12:34N 20°32' W 086°58'3 2.7
2016-Aug-22 11:22N 20°34' W 087°00'5 0.6
2016-Aug-22 03:12N 20°31' W 086°57'1 1.7
2016-Aug-22 02:34N 20°32' W 086°58'4 2.9
2016-Aug-22 01:22N 20°34' W 087°00'5 5.6
2016-Aug-22 00:33N 20°31' W 086°57'0 0.1
2016-Aug-21 23:33N 20°31' W 086°57'1 1.2
2016-Aug-21 22:33N 20°32' W 086°58'5 4.9
2016-Aug-21 21:30N 20°35' W 087°02'6 6.7
2016-Aug-21 20:33N 20°31' W 086°57'2 2.2
2016-Aug-21 19:33N 20°32' W 086°59'2 1.9
2016-Aug-21 18:23N 20°34' W 087°00'2 1.9
2016-Aug-21 17:33N 20°33' W 086°59'1 0.8
2016-Aug-21 16:21N 20°33' W 086°60'1 1.2
2016-Aug-21 15:34N 20°33' W 086°59'1 1.1
2016-Aug-21 14:23N 20°34' W 087°00'3 3.5
2016-Aug-21 13:34N 20°32' W 086°58'2 2.1
2016-Aug-21 12:22N 20°33' W 086°60'4 4.6
2016-Aug-21 11:33N 20°31' W 086°57'3 0.3
2016-Aug-21 01:34N 20°33' W 086°59'1 1.2
2016-Aug-21 00:23N 20°34' W 086°60'1 1.7
2016-Aug-20 23:33N 20°33' W 086°59'1 0.7
2016-Aug-20 22:18N 20°33' W 086°60'3 4.7
2016-Aug-20 21:33N 20°31' W 086°57'2 2.0
2016-Aug-20 20:33N 20°32' W 086°59'2 1.5
2016-Aug-20 19:20N 20°34' W 086°60'1 1.7
2016-Aug-20 18:33N 20°33' W 086°59'1 0.9
2016-Aug-20 17:20N 20°33' W 086°60'1 1.5
2016-Aug-20 16:34N 20°33' W 086°59'1 0.8
2016-Aug-20 15:15N 20°33' W 086°60'2 2.5
2016-Aug-20 14:33N 20°32' W 086°58'3 2.7
2016-Aug-20 13:21N 20°34' W 087°01'4 5.6
2016-Aug-20 12:33N 20°31' W 086°58'3 2.6
2016-Aug-20 11:19N 20°33' W 087°00'4 5.1
2016-Aug-20 10:33N 20°31' W 086°57'0 0.0
2016-Aug-20 03:14N 20°31' W 086°57'2 2.4
2016-Aug-20 02:33N 20°32' W 086°58'5 4.3
2016-Aug-20 01:27N 20°35' W 087°02'6 7.2
2016-Aug-20 00:33N 20°31' W 086°57'0 0.0
2016-Aug-19 23:33N 20°31' W 086°57'2 2.3
2016-Aug-19 22:33N 20°29' W 086°58'5 4.0
2016-Aug-19 21:18N 20°33' W 087°01'4 5.6
2016-Aug-19 20:33N 20°31' W 086°57'0 0.0
2016-Aug-19 19:33N 20°31' W 086°57'0 0.0
2016-Aug-19 17:33N 20°31' W 086°57'2 0.8
2016-Aug-19 14:33N 20°29' W 086°59'0 0.0
2016-Aug-19 12:34N 20°29' W 086°59'0 0.3
2016-Aug-19 11:34N 20°29' W 086°59'2 0.2
2016-Aug-19 01:26N 20°31' W 086°57'0 0.0
2016-Aug-18 23:34N 20°31' W 086°57'0 0.1
2016-Aug-18 22:34N 20°31' W 086°57'0 0.0
2016-Aug-18 21:34N 20°31' W 086°57'2 2.4
2016-Aug-18 20:34N 20°32' W 086°59'1 1.1
2016-Aug-18 19:18N 20°33' W 086°60'1 1.6
2016-Aug-18 18:33N 20°33' W 086°59'1 0.5
2016-Aug-18 17:21N 20°33' W 086°60'1 1.0
2016-Aug-18 16:33N 20°33' W 086°59'1 0.8
2016-Aug-18 15:17N 20°33' W 086°60'1 1.0
2016-Aug-18 14:33N 20°33' W 086°59'3 3.1
2016-Aug-18 13:26N 20°35' W 087°02'4 4.7
2016-Aug-18 12:33N 20°32' W 086°58'2 1.5
2016-Aug-18 11:20N 20°33' W 087°00'4 0.5
2016-Aug-18 03:14N 20°31' W 086°57'0 0.2
2016-Aug-18 02:34N 20°31' W 086°57'4 3.4
2016-Aug-18 01:21N 20°34' W 087°00'4 5.4
2016-Aug-18 00:33N 20°31' W 086°57'0 0.1
2016-Aug-17 23:33N 20°31' W 086°57'2 2.0
2016-Aug-17 22:33N 20°32' W 086°58'2 1.6
2016-Aug-17 21:21N 20°33' W 086°60'4 4.8
2016-Aug-17 20:33N 20°31' W 086°57'3 2.6
2016-Aug-17 19:33N 20°33' W 086°59'2 1.9
2016-Aug-17 18:23N 20°34' W 087°01'1 1.1
2016-Aug-17 17:33N 20°33' W 087°01'1 0.5
2016-Aug-17 16:19N 20°33' W 086°60'0 0.6
2016-Aug-17 15:33N 20°33' W 086°60'1 0.5
2016-Aug-17 14:18N 20°33' W 087°00'3 3.6
2016-Aug-17 13:33N 20°32' W 086°58'3 2.4
2016-Aug-17 12:22N 20°34' W 087°00'4 5.1
2016-Aug-17 11:33N 20°31' W 086°57'0 0.0
2016-Aug-17 01:34N 20°31' W 086°57'0 0.0
2016-Aug-16 23:33N 20°31' W 086°57'0 0.1
2016-Aug-16 22:33N 20°31' W 086°57'0 0.0
2016-Aug-16 21:33N 20°31' W 086°57'1 1.3
2016-Aug-16 20:33N 20°32' W 086°58'2 1.5
2016-Aug-16 19:17N 20°33' W 086°60'1 0.8
2016-Aug-16 18:33N 20°32' W 086°59'0 0.3
2016-Aug-16 17:16N 20°32' W 086°59'1 1.0
2016-Aug-16 16:34N 20°33' W 086°59'0 0.3
2016-Aug-16 15:17N 20°33' W 086°60'0 0.5
2016-Aug-16 14:34N 20°33' W 086°59'0 0.3
2016-Aug-16 13:18N 20°33' W 086°60'1 1.3
2016-Aug-16 12:33N 20°32' W 086°59'2 1.9
2016-Aug-16 11:21N 20°34' W 087°01'5 0.6
2016-Aug-16 03:13N 20°31' W 086°57'2 2.4
2016-Aug-16 02:34N 20°32' W 086°58'2 1.9
2016-Aug-16 01:19N 20°34' W 087°00'4 5.3
2016-Aug-16 00:33N 20°31' W 086°57'0 0.0
2016-Aug-15 23:33N 20°31' W 086°57'2 2.3
2016-Aug-15 22:34N 20°32' W 086°59'1 1.0
2016-Aug-15 21:18N 20°33' W 086°60'3 4.7
2016-Aug-15 20:33N 20°31' W 086°57'2 1.9
2016-Aug-15 19:33N 20°32' W 086°59'2 2.0
2016-Aug-15 18:23N 20°34' W 087°00'1 1.8
2016-Aug-15 17:34N 20°33' W 086°59'1 1.0
2016-Aug-15 16:20N 20°34' W 087°00'1 1.8
2016-Aug-15 15:34N 20°33' W 086°59'1 0.6
2016-Aug-15 14:18N 20°33' W 086°60'2 3.1
2016-Aug-15 13:33N 20°32' W 086°58'4 3.2
2016-Aug-15 12:23N 20°34' W 087°01'5 5.9
2016-Aug-15 11:33N 20°31' W 086°57'  
Track history (hours):
 
Tides and Currents Weather Stations Pressure Air Temp Water Temp Dewpoint Dewpoint Depression Visibility Wind Speed Wind Dir Waves Ship Positions

Mexico V

Last reported at 2016-Aug-25 01:34 UTC. Time now 2016-Aug-25 09:46 UTC.
Position N 20°32' W 086°58'.

Length 40 m; draft 1.5 m.

Type: Ship. MMSI: 345110005.

Date/timePositionNaut miles runAvg speedWind from/ knotsBaromVisibWave heightAir tempDewpointWater temp
2016-Aug-25 01:34N 20°32' W 086°58'3 2.3
2016-Aug-25 00:23N 20°34' W 087°00'4 5.2
2016-Aug-24 23:33N 20°30' W 086°57'4 2.9
2016-Aug-24 22:15N 20°33' W 086°60'4 5.4
2016-Aug-24 21:34N 20°31' W 086°57'1 1.5
2016-Aug-24 20:34N 20°32' W 086°58'2 1.8
2016-Aug-24 19:18N 20°33' W 086°60'1 1.5
2016-Aug-24 18:33N 20°33' W 086°59'1 1.0
2016-Aug-24 17:29N 20°33' W 086°60'4 1.8
2016-Aug-24 15:33N 20°31' W 086°57'0 0.4
2016-Aug-24 14:33N 20°31' W 086°57'0 0.0
2016-Aug-24 13:33N 20°31' W 086°57'1 1.1
2016-Aug-24 12:33N 20°32' W 086°58'3 2.4
2016-Aug-24 11:19N 20°34' W 087°00'4 5.3
2016-Aug-24 10:34N 20°31' W 086°57'0 0.0
2016-Aug-24 03:20N 20°31' W 086°57'2 2.4
2016-Aug-24 02:33N 20°32' W 086°58'3 2.8
2016-Aug-24 01:25N 20°34' W 087°01'3 3.9
2016-Aug-24 00:34N 20°32' W 086°59'3 2.6
2016-Aug-23 23:21N 20°34' W 087°01'5 6.1
2016-Aug-23 22:33N 20°31' W 086°57'0 0.1
2016-Aug-23 21:33N 20°31' W 086°57'5 3.6
2016-Aug-23 20:12N 20°34' W 087°01'3 4.3
2016-Aug-23 19:33N 20°32' W 086°59'3 2.5
2016-Aug-23 18:26N 20°34' W 087°01'2 2.7
2016-Aug-23 17:33N 20°32' W 086°59'2 1.6
2016-Aug-23 16:24N 20°34' W 087°00'1 1.7
2016-Aug-23 15:34N 20°33' W 086°59'1 0.9
2016-Aug-23 14:21N 20°34' W 087°00'1 1.8
2016-Aug-23 13:33N 20°32' W 086°59'1 0.4
2016-Aug-23 12:17N 20°33' W 086°60'3 4.4
2016-Aug-23 11:34N 20°31' W 086°57'0 0.0
2016-Aug-23 01:16N 20°31' W 086°57'0 0.0
2016-Aug-22 23:33N 20°31' W 086°57'0 0.1
2016-Aug-22 22:33N 20°31' W 086°57'0 0.0
2016-Aug-22 21:33N 20°31' W 086°57'2 1.9
2016-Aug-22 20:33N 20°32' W 086°59'1 0.9
2016-Aug-22 19:18N 20°33' W 086°59'0 0.3
2016-Aug-22 18:33N 20°33' W 086°59'1 0.4
2016-Aug-22 17:20N 20°33' W 086°59'1 0.8
2016-Aug-22 16:33N 20°33' W 086°59'3 2.9
2016-Aug-22 15:23N 20°35' W 087°01'4 4.6
2016-Aug-22 14:33N 20°32' W 086°58'1 1.0
2016-Aug-22 13:15N 20°33' W 086°60'2 2.7
2016-Aug-22 12:34N 20°32' W 086°58'3 2.7
2016-Aug-22 11:22N 20°34' W 087°00'5 0.6
2016-Aug-22 03:12N 20°31' W 086°57'1 1.7
2016-Aug-22 02:34N 20°32' W 086°58'4 2.9
2016-Aug-22 01:22N 20°34' W 087°00'5 5.6
2016-Aug-22 00:33N 20°31' W 086°57'0 0.1
2016-Aug-21 23:33N 20°31' W 086°57'1 1.2
2016-Aug-21 22:33N 20°32' W 086°58'5 4.9
2016-Aug-21 21:30N 20°35' W 087°02'6 6.7
2016-Aug-21 20:33N 20°31' W 086°57'2 2.2
2016-Aug-21 19:33N 20°32' W 086°59'2 1.9
2016-Aug-21 18:23N 20°34' W 087°00'2 1.9
2016-Aug-21 17:33N 20°33' W 086°59'1 0.8
2016-Aug-21 16:21N 20°33' W 086°60'1 1.2
2016-Aug-21 15:34N 20°33' W 086°59'1 1.1
2016-Aug-21 14:23N 20°34' W 087°00'3 3.5
2016-Aug-21 13:34N 20°32' W 086°58'2 2.1
2016-Aug-21 12:22N 20°33' W 086°60'4 4.6
2016-Aug-21 11:33N 20°31' W 086°57'3 0.3
2016-Aug-21 01:34N 20°33' W 086°59'1 1.2
2016-Aug-21 00:23N 20°34' W 086°60'1 1.7
2016-Aug-20 23:33N 20°33' W 086°59'1 0.7
2016-Aug-20 22:18N 20°33' W 086°60'3 4.7
2016-Aug-20 21:33N 20°31' W 086°57'2 2.0
2016-Aug-20 20:33N 20°32' W 086°59'2 1.5
2016-Aug-20 19:20N 20°34' W 086°60'1 1.7
2016-Aug-20 18:33N 20°33' W 086°59'1 0.9
2016-Aug-20 17:20N 20°33' W 086°60'1 1.5
2016-Aug-20 16:34N 20°33' W 086°59'1 0.8
2016-Aug-20 15:15N 20°33' W 086°60'2 2.5
2016-Aug-20 14:33N 20°32' W 086°58'3 2.7
2016-Aug-20 13:21N 20°34' W 087°01'4 5.6
2016-Aug-20 12:33N 20°31' W 086°58'3 2.6
2016-Aug-20 11:19N 20°33' W 087°00'4 5.1
2016-Aug-20 10:33N 20°31' W 086°57'0 0.0
2016-Aug-20 03:14N 20°31' W 086°57'2 2.4
2016-Aug-20 02:33N 20°32' W 086°58'5 4.3
2016-Aug-20 01:27N 20°35' W 087°02'6 7.2
2016-Aug-20 00:33N 20°31' W 086°57'0 0.0
2016-Aug-19 23:33N 20°31' W 086°57'2 2.3
2016-Aug-19 22:33N 20°29' W 086°58'5 4.0
2016-Aug-19 21:18N 20°33' W 087°01'4 5.6
2016-Aug-19 20:33N 20°31' W 086°57'0 0.0
2016-Aug-19 19:33N 20°31' W 086°57'0 0.0
2016-Aug-19 17:33N 20°31' W 086°57'2 0.8
2016-Aug-19 14:33N 20°29' W 086°59'0 0.0
2016-Aug-19 12:34N 20°29' W 086°59'0 0.3
2016-Aug-19 11:34N 20°29' W 086°59'2 0.2
2016-Aug-19 01:26N 20°31' W 086°57'0 0.0
2016-Aug-18 23:34N 20°31' W 086°57'0 0.1
2016-Aug-18 22:34N 20°31' W 086°57'0 0.0
2016-Aug-18 21:34N 20°31' W 086°57'2 2.4
2016-Aug-18 20:34N 20°32' W 086°59'1 1.1
2016-Aug-18 19:18N 20°33' W 086°60'1 1.6
2016-Aug-18 18:33N 20°33' W 086°59'1 0.5
2016-Aug-18 17:21N 20°33' W 086°60'1 1.0
2016-Aug-18 16:33N 20°33' W 086°59'1 0.8
2016-Aug-18 15:17N 20°33' W 086°60'1 1.0
2016-Aug-18 14:33N 20°33' W 086°59'3 3.1
2016-Aug-18 13:26N 20°35' W 087°02'4 4.7
2016-Aug-18 12:33N 20°32' W 086°58'2 1.5
2016-Aug-18 11:20N 20°33' W 087°00'4 0.5
2016-Aug-18 03:14N 20°31' W 086°57'0 0.2
2016-Aug-18 02:34N 20°31' W 086°57'4 3.4
2016-Aug-18 01:21N 20°34' W 087°00'4 5.4
2016-Aug-18 00:33N 20°31' W 086°57'0 0.1
2016-Aug-17 23:33N 20°31' W 086°57'2 2.0
2016-Aug-17 22:33N 20°32' W 086°58'2 1.6
2016-Aug-17 21:21N 20°33' W 086°60'4 4.8
2016-Aug-17 20:33N 20°31' W 086°57'3 2.6
2016-Aug-17 19:33N 20°33' W 086°59'2 1.9
2016-Aug-17 18:23N 20°34' W 087°01'1 1.1
2016-Aug-17 17:33N 20°33' W 087°01'1 0.5
2016-Aug-17 16:19N 20°33' W 086°60'0 0.6
2016-Aug-17 15:33N 20°33' W 086°60'1 0.5
2016-Aug-17 14:18N 20°33' W 087°00'3 3.6
2016-Aug-17 13:33N 20°32' W 086°58'3 2.4
2016-Aug-17 12:22N 20°34' W 087°00'4 5.1
2016-Aug-17 11:33N 20°31' W 086°57'0 0.0
2016-Aug-17 01:34N 20°31' W 086°57'0 0.0
2016-Aug-16 23:33N 20°31' W 086°57'0 0.1
2016-Aug-16 22:33N 20°31' W 086°57'0 0.0
2016-Aug-16 21:33N 20°31' W 086°57'1 1.3
2016-Aug-16 20:33N 20°32' W 086°58'2 1.5
2016-Aug-16 19:17N 20°33' W 086°60'1 0.8
2016-Aug-16 18:33N 20°32' W 086°59'0 0.3
2016-Aug-16 17:16N 20°32' W 086°59'1 1.0
2016-Aug-16 16:34N 20°33' W 086°59'0 0.3
2016-Aug-16 15:17N 20°33' W 086°60'0 0.5
2016-Aug-16 14:34N 20°33' W 086°59'0 0.3
2016-Aug-16 13:18N 20°33' W 086°60'1 1.3
2016-Aug-16 12:33N 20°32' W 086°59'2 1.9
2016-Aug-16 11:21N 20°34' W 087°01'5 0.6
2016-Aug-16 03:13N 20°31' W 086°57'2 2.4
2016-Aug-16 02:34N 20°32' W 086°58'2 1.9
2016-Aug-16 01:19N 20°34' W 087°00'4 5.3
2016-Aug-16 00:33N 20°31' W 086°57'0 0.0
2016-Aug-15 23:33N 20°31' W 086°57'2 2.3
2016-Aug-15 22:34N 20°32' W 086°59'1 1.0
2016-Aug-15 21:18N 20°33' W 086°60'3 4.7
2016-Aug-15 20:33N 20°31' W 086°57'2 1.9
2016-Aug-15 19:33N 20°32' W 086°59'2 2.0
2016-Aug-15 18:23N 20°34' W 087°00'1 1.8
2016-Aug-15 17:34N 20°33' W 086°59'1 1.0
2016-Aug-15 16:20N 20°34' W 087°00'1 1.8
2016-Aug-15 15:34N 20°33' W 086°59'1 0.6
2016-Aug-15 14:18N 20°33' W 086°60'2 3.1
2016-Aug-15 13:33N 20°32' W 086°58'4 3.2
2016-Aug-15 12:23N 20°34' W 087°01'5 5.9
2016-Aug-15 11:33N 20°31' W 086°57'  

Dump ship's entire track history